Time;durP1;ratioP1;P1;durP2;ratioP2;P2;SDS_P1;SDS_P2;PMS_P1;PMS_P2;Temp;Humidity;BMP_temperature;BMP_pressure;BME280_temperature;BME280_humidity;BME280_pressure;Samples;Min_cycle;Max_cycle;Signal;HPM_P1;HPM_P2
2022/05/29 00:01:22;;;;;;;4.88;2.20;;;;;;;11.14;65.34;101808.22;4953108;28;20055;-75
2022/05/29 00:03:49;;;;;;;5.53;2.38;;;;;;;11.13;65.48;101798.59;4949334;28;20087;-75
2022/05/29 00:06:15;;;;;;;6.40;2.15;;;;;;;11.10;65.46;101796.75;4952091;28;20058;-75
2022/05/29 00:08:42;;;;;;;5.43;2.28;;;;;;;11.04;65.71;101795.66;4952660;28;20490;-75
2022/05/29 00:11:10;;;;;;;4.30;2.15;;;;;;;11.02;65.81;101797.31;4950842;28;20039;-75
2022/05/29 00:13:36;;;;;;;7.20;2.50;;;;;;;10.99;65.90;101791.97;4952005;28;20030;-75
2022/05/29 00:16:02;;;;;;;4.72;2.15;;;;;;;10.96;65.95;101790.13;4952310;28;20435;-75
2022/05/29 00:18:27;;;;;;;5.65;2.15;;;;;;;10.95;65.91;101791.00;4951390;28;20059;-75
2022/05/29 00:20:56;;;;;;;7.30;2.38;;;;;;;10.94;65.85;101787.47;4952241;28;20047;-75
2022/05/29 00:23:22;;;;;;;9.35;2.60;;;;;;;10.92;65.62;101775.22;4951971;28;20031;-75
2022/05/29 00:25:50;;;;;;;5.32;2.28;;;;;;;10.87;65.92;101782.88;4952168;28;20059;-75
2022/05/29 00:28:15;;;;;;;4.40;2.30;;;;;;;10.92;66.40;101781.34;4952491;28;20027;-75
2022/05/29 00:30:41;;;;;;;5.80;2.20;;;;;;;10.89;66.24;101776.00;4952207;28;20031;-75
2022/05/29 00:33:07;;;;;;;5.90;2.63;;;;;;;10.86;66.54;101773.28;4948510;28;20051;-75
2022/05/29 00:35:33;;;;;;;6.28;2.22;;;;;;;10.83;66.61;101775.75;4945232;28;20051;-75
2022/05/29 00:37:59;;;;;;;5.80;2.30;;;;;;;10.82;66.40;101778.31;4952283;28;20121;-76
2022/05/29 00:40:33;;;;;;;6.90;2.70;;;;;;;10.79;66.73;101773.88;4952001;28;20030;-75
2022/05/29 00:42:58;;;;;;;7.70;2.42;;;;;;;10.80;66.66;101770.44;4951387;28;20101;-75
2022/05/29 00:45:24;;;;;;;5.97;2.22;;;;;;;10.79;66.55;101766.94;4952161;28;20490;-75
2022/05/29 00:47:50;;;;;;;7.18;2.30;;;;;;;10.76;66.75;101758.09;4951868;28;20027;-75
2022/05/29 00:50:20;;;;;;;5.50;2.45;;;;;;;10.75;67.09;101758.97;4950062;28;20494;-75
2022/05/29 00:52:45;;;;;;;6.03;2.40;;;;;;;10.75;67.53;101761.56;4950448;28;20479;-75
2022/05/29 00:55:22;;;;;;;6.97;2.42;;;;;;;10.78;67.82;101753.84;4949654;28;20027;-75
2022/05/29 00:57:54;;;;;;;6.50;2.60;;;;;;;10.78;67.97;101748.63;4950285;29;20034;-75
2022/05/29 01:00:25;;;;;;;5.43;2.58;;;;;;;10.79;68.32;101753.03;4939713;28;20031;-75
2022/05/29 01:02:50;;;;;;;6.63;2.38;;;;;;;10.75;68.42;101752.00;4951343;28;20046;-75
2022/05/29 01:05:17;;;;;;;6.38;2.63;;;;;;;10.78;68.70;101751.25;4950221;28;20135;-75
2022/05/29 01:08:41;;;;;;;6.28;2.58;;;;;;;10.84;67.89;101746.25;4952336;28;20495;-75
2022/05/29 01:11:12;;;;;;;7.43;2.60;;;;;;;10.84;69.15;101751.47;4944458;28;20521;-75
2022/05/29 01:13:45;;;;;;;6.00;2.40;;;;;;;10.84;69.26;101748.88;4949750;28;20031;-75
2022/05/29 01:16:34;;;;;;;7.07;2.53;;;;;;;10.85;69.21;101741.91;4945080;28;20023;-75
2022/05/29 01:19:28;;;;;;;8.02;2.47;;;;;;;10.92;68.98;101743.91;4952132;28;20041;-75
2022/05/29 01:22:10;;;;;;;5.13;2.50;;;;;;;10.88;69.76;101735.13;4948847;28;20039;-75
2022/05/29 01:24:50;;;;;;;8.18;3.17;;;;;;;10.87;69.70;101727.25;4950862;29;20023;-75
2022/05/29 01:27:38;;;;;;;8.27;3.00;;;;;;;10.85;69.75;101731.50;4951269;28;20030;-75
2022/05/29 01:30:08;;;;;;;6.25;2.35;;;;;;;10.85;69.78;101727.19;4949234;28;20031;-75
2022/05/29 01:32:43;;;;;;;4.65;2.38;;;;;;;10.84;70.18;101722.78;4950929;28;20114;-75
2022/05/29 01:35:16;;;;;;;7.25;2.88;;;;;;;10.82;69.58;101728.78;4950741;28;20479;-75
2022/05/29 01:37:53;;;;;;;6.05;2.67;;;;;;;10.83;69.57;101726.22;4951403;28;20031;-75
2022/05/29 01:40:21;;;;;;;8.02;2.80;;;;;;;10.83;69.57;101717.53;4950633;28;20062;-75
2022/05/29 01:42:51;;;;;;;6.47;2.80;;;;;;;10.81;69.84;101727.91;4949485;28;20051;-75
2022/05/29 01:45:27;;;;;;;6.65;3.00;;;;;;;10.83;69.39;101718.41;4950753;29;20046;-75
2022/05/29 01:47:58;;;;;;;7.05;2.20;;;;;;;10.83;69.78;101717.53;4951872;29;20061;-75
2022/05/29 01:50:32;;;;;;;5.88;2.45;;;;;;;10.77;69.34;101718.19;4950934;28;20027;-75
2022/05/29 01:53:20;;;;;;;8.02;2.70;;;;;;;10.75;69.42;101719.84;4949885;28;20039;-75
2022/05/29 01:55:51;;;;;;;8.63;2.75;;;;;;;10.74;69.22;101712.84;4943879;28;20046;-75
2022/05/29 01:58:23;;;;;;;6.13;2.60;;;;;;;10.70;68.78;101709.28;4951177;28;20042;-75
2022/05/29 02:00:52;;;;;;;5.95;3.05;;;;;;;10.68;68.95;101703.09;4951484;28;20039;-75
2022/05/29 02:03:24;;;;;;;7.32;2.80;;;;;;;10.66;68.92;101703.84;4948010;28;20027;-75
2022/05/29 02:06:00;;;;;;;8.15;2.78;;;;;;;10.62;68.79;101702.88;4945628;28;20039;-75
2022/05/29 02:08:47;;;;;;;7.13;2.83;;;;;;;10.64;68.80;101702.94;4954181;28;20050;-75
2022/05/29 02:11:31;;;;;;;7.55;2.90;;;;;;;10.64;68.92;101701.19;4965825;28;20031;-75
2022/05/29 02:14:03;;;;;;;9.90;3.30;;;;;;;10.59;69.84;101706.25;4953259;28;20027;-75
2022/05/29 02:16:46;;;;;;;7.45;2.60;;;;;;;10.59;69.40;101698.44;4952439;28;20038;-75
2022/05/29 02:19:15;;;;;;;8.13;3.17;;;;;;;10.55;69.95;101696.53;4954668;28;20034;-75
2022/05/29 02:21:57;;;;;;;6.28;3.15;;;;;;;10.57;69.96;101696.59;4954395;28;20032;-75
2022/05/29 02:24:28;;;;;;;8.25;3.08;;;;;;;10.57;70.20;101691.38;4954119;28;20035;-75
2022/05/29 02:27:01;;;;;;;10.23;3.60;;;;;;;10.60;70.20;101689.78;4955153;28;20398;-71
2022/05/29 02:29:27;;;;;;;7.13;3.42;;;;;;;10.63;70.29;101693.31;4951030;28;20023;-71
2022/05/29 02:32:08;;;;;;;7.35;2.97;;;;;;;10.61;70.05;101686.31;4952558;28;20027;-72
2022/05/29 02:34:59;;;;;;;8.07;3.35;;;;;;;10.61;69.59;101686.31;4950581;28;20043;-71
2022/05/29 02:37:44;;;;;;;8.88;3.50;;;;;;;10.59;69.41;101688.00;4949534;29;20026;-72
2022/05/29 02:40:18;;;;;;;6.95;3.55;;;;;;;10.54;69.48;101681.75;4953523;29;20117;-71
2022/05/29 02:42:51;;;;;;;7.65;3.90;;;;;;;10.50;69.82;101678.94;4953522;28;20031;-71
2022/05/29 02:45:31;;;;;;;6.00;3.55;;;;;;;10.49;69.26;101680.69;4953234;28;20042;-72
2022/05/29 02:48:06;;;;;;;6.03;3.60;;;;;;;10.44;69.90;101684.81;4951610;28;20035;-71
2022/05/29 02:50:40;;;;;;;8.57;3.60;;;;;;;10.41;70.25;101677.78;4948705;28;20113;-71
2022/05/29 02:53:13;;;;;;;7.90;4.22;;;;;;;10.41;70.46;101676.88;4950844;28;20047;-71
2022/05/29 02:55:41;;;;;;;9.30;4.30;;;;;;;10.38;70.64;101667.22;4953820;28;20035;-71
2022/05/29 02:58:18;;;;;;;8.60;4.15;;;;;;;10.40;71.03;101664.72;4951285;28;20110;-75
2022/05/29 03:00:56;;;;;;;8.68;3.75;;;;;;;10.42;70.86;101665.66;4952103;28;20114;-75
2022/05/29 03:03:37;;;;;;;10.23;4.60;;;;;;;10.42;70.98;101661.31;4952028;28;20119;-75
2022/05/29 03:06:14;;;;;;;10.65;4.10;;;;;;;10.44;70.76;101667.47;4953664;28;20086;-76
2022/05/29 03:09:05;;;;;;;9.32;3.83;;;;;;;10.47;70.55;101665.81;4949206;28;20067;-75
2022/05/29 03:11:37;;;;;;;11.00;3.83;;;;;;;10.44;70.98;101666.56;4942387;28;20039;-75
2022/05/29 03:14:15;;;;;;;10.77;4.32;;;;;;;10.41;71.00;101664.78;4950226;28;20027;-76
2022/05/29 03:16:46;;;;;;;10.00;3.78;;;;;;;10.41;71.43;101664.78;4953174;28;20035;-76
2022/05/29 03:19:28;;;;;;;10.15;4.20;;;;;;;10.42;70.85;101658.69;4952674;28;20035;-76
2022/05/29 03:22:06;;;;;;;10.95;4.43;;;;;;;10.41;71.45;101659.56;4953561;28;20121;-75
2022/05/29 03:24:44;;;;;;;10.93;4.63;;;;;;;10.42;71.32;101660.44;4952000;28;20039;-76
2022/05/29 03:27:36;;;;;;;8.55;4.15;;;;;;;10.43;71.57;101659.63;4953086;28;20143;-76
2022/05/29 03:30:17;;;;;;;6.78;3.47;;;;;;;10.46;71.42;101651.91;4950031;28;20034;-76
2022/05/29 03:32:43;;;;;;;8.05;3.70;;;;;;;10.46;71.66;101654.50;4951998;28;20031;-75
2022/05/29 03:35:33;;;;;;;12.68;4.45;;;;;;;10.48;71.21;101652.84;4948901;28;20537;-76
2022/05/29 03:38:01;;;;;;;9.20;3.67;;;;;;;10.47;71.80;101651.09;4949347;28;20066;-75
2022/05/29 03:40:28;;;;;;;10.60;4.15;;;;;;;10.47;72.19;101651.09;4953390;28;20077;-75
2022/05/29 03:42:54;;;;;;;10.45;3.90;;;;;;;10.49;72.32;101646.81;4952567;28;20043;-75
2022/05/29 03:45:21;;;;;;;10.38;4.13;;;;;;;10.46;72.46;101645.78;4946650;28;20042;-76
2022/05/29 03:47:46;;;;;;;10.00;3.70;;;;;;;10.46;72.35;101638.88;4949687;28;20085;-76
2022/05/29 03:50:16;;;;;;;9.85;3.63;;;;;;;10.44;72.56;101646.63;4950300;28;20031;-76
2022/05/29 03:52:42;;;;;;;9.20;4.05;;;;;;;10.44;72.50;101640.53;4951932;28;20065;-76
2022/05/29 03:55:08;;;;;;;7.82;3.20;;;;;;;10.43;72.74;101638.78;4949935;28;20054;-75
2022/05/29 03:57:34;;;;;;;9.90;3.70;;;;;;;10.42;72.96;101637.84;4947004;28;20689;-76
2022/05/29 03:59:59;;;;;;;11.43;3.97;;;;;;;10.42;73.37;101635.25;4947865;28;20019;-75
2022/05/29 04:02:25;;;;;;;7.60;3.72;;;;;;;10.43;72.92;101633.56;4949633;28;20042;-75
2022/05/29 04:04:50;;;;;;;9.25;3.53;;;;;;;10.47;73.16;101634.53;4953235;28;20038;-75
2022/05/29 04:07:15;;;;;;;9.80;3.55;;;;;;;10.48;73.22;101625.91;4951365;28;20027;-76
2022/05/29 04:12:25;;;;;;;9.10;4.00;;;;;;;10.49;73.15;101635.50;4949629;28;20086;-75
2022/05/29 04:14:50;;;;;;;10.13;3.80;;;;;;;10.49;72.95;101631.16;4951065;28;20821;-76
2022/05/29 04:17:17;;;;;;;9.80;4.20;;;;;;;10.50;73.18;101629.44;4950352;28;20435;-75
2022/05/29 04:19:44;;;;;;;12.25;4.20;;;;;;;10.54;72.77;101632.25;4950861;28;20106;-75
2022/05/29 04:22:13;;;;;;;12.48;4.32;;;;;;;10.53;73.04;101632.16;4952283;28;20023;-75
2022/05/29 04:24:38;;;;;;;11.23;4.45;;;;;;;10.56;73.29;101630.56;4949648;29;20051;-75
2022/05/29 04:27:07;;;;;;;12.00;4.80;;;;;;;10.57;73.60;101632.34;4952311;28;20062;-75
2022/05/29 04:29:32;;;;;;;11.98;4.82;;;;;;;10.59;74.34;101627.19;4949598;28;20031;-75
2022/05/29 04:34:42;;;;;;;8.43;4.30;;;;;;;10.60;73.99;101627.25;4949917;28;20054;-76
2022/05/29 04:37:07;;;;;;;9.13;3.95;;;;;;;10.63;74.76;101638.59;4949448;28;20039;-75
2022/05/29 04:39:35;;;;;;;14.52;4.60;;;;;;;10.65;75.05;101645.66;4948168;28;20031;-75
2022/05/29 04:42:00;;;;;;;12.15;5.05;;;;;;;10.66;74.76;101642.22;4952586;28;20035;-74
2022/05/29 04:44:26;;;;;;;9.15;4.25;;;;;;;10.66;75.09;101641.31;4951385;28;20023;-74
2022/05/29 04:46:51;;;;;;;13.82;4.53;;;;;;;10.68;74.96;101645.75;4946290;28;20063;-74
2022/05/29 04:49:17;;;;;;;11.88;4.22;;;;;;;10.70;75.30;101648.41;4943572;28;20490;-74
2022/05/29 04:51:42;;;;;;;12.43;4.50;;;;;;;10.72;75.46;101651.97;4950668;28;20031;-74
2022/05/29 04:54:07;;;;;;;12.13;4.50;;;;;;;10.72;75.42;101649.38;4952519;28;20022;-73
2022/05/29 04:56:33;;;;;;;10.57;4.07;;;;;;;10.72;75.51;101651.97;4951999;28;20031;-74
2022/05/29 04:58:58;;;;;;;10.15;4.45;;;;;;;10.71;76.25;101644.97;4948266;28;20042;-74
2022/05/29 05:01:23;;;;;;;11.38;5.00;;;;;;;10.70;74.95;101632.78;4950535;28;20031;-74
2022/05/29 05:03:49;;;;;;;10.18;4.50;;;;;;;10.69;76.07;101630.97;4951074;28;20024;-73
2022/05/29 05:06:14;;;;;;;11.40;4.32;;;;;;;10.69;75.80;101626.69;4950714;28;20028;-74
2022/05/29 05:08:39;;;;;;;12.60;4.63;;;;;;;10.66;75.80;101628.28;4951325;28;20019;-73
2022/05/29 05:11:06;;;;;;;10.35;4.82;;;;;;;10.68;76.06;101629.22;4945920;28;20039;-74
2022/05/29 05:13:31;;;;;;;10.20;4.60;;;;;;;10.66;76.43;101625.66;4951892;28;20031;-74
2022/05/29 05:16:04;;;;;;;10.43;4.70;;;;;;;10.68;76.17;101611.00;4948852;28;20031;-73
2022/05/29 05:18:30;;;;;;;10.38;4.72;;;;;;;10.66;76.50;101620.47;4951524;28;20054;-74
2022/05/29 05:20:55;;;;;;;10.82;4.93;;;;;;;10.67;76.36;101612.69;4950226;28;20039;-74
2022/05/29 05:23:20;;;;;;;10.60;4.72;;;;;;;10.69;76.78;101626.69;4950117;28;20534;-74
2022/05/29 05:25:46;;;;;;;12.10;4.82;;;;;;;10.70;77.02;101617.13;4948337;28;20114;-74
2022/05/29 05:28:11;;;;;;;13.15;4.90;;;;;;;10.71;76.90;101613.69;4952271;28;20041;-70
2022/05/29 05:30:36;;;;;;;16.10;5.78;;;;;;;10.70;77.17;101615.44;4949154;28;20031;-70
2022/05/29 05:33:02;;;;;;;13.60;5.20;;;;;;;10.73;77.76;101617.22;4948759;28;20051;-70
2022/05/29 05:35:27;;;;;;;13.25;5.32;;;;;;;10.75;77.57;101618.19;4949165;28;20413;-70
2022/05/29 05:37:52;;;;;;;13.50;5.45;;;;;;;10.73;77.81;101612.94;4949892;29;20030;-70
2022/05/29 05:40:18;;;;;;;13.57;6.78;;;;;;;10.75;77.43;101610.38;4950267;28;20114;-69
2022/05/29 05:42:43;;;;;;;14.60;6.60;;;;;;;10.75;77.77;101611.25;4952436;28;20043;-69
2022/05/29 05:45:11;;;;;;;15.10;7.25;;;;;;;10.75;77.68;101615.59;4955131;28;20039;-70
2022/05/29 05:47:36;;;;;;;13.30;6.75;;;;;;;10.77;77.96;101606.09;4951609;28;20118;-70
2022/05/29 05:50:03;;;;;;;15.27;6.70;;;;;;;10.78;77.74;101602.66;4952548;28;20106;-70
2022/05/29 05:52:29;;;;;;;13.52;6.00;;;;;;;10.80;76.80;101606.19;4950799;28;20023;-70
2022/05/29 05:54:54;;;;;;;13.57;5.90;;;;;;;10.82;77.95;101603.63;4953413;28;20093;-69
2022/05/29 05:57:20;;;;;;;14.02;5.78;;;;;;;10.81;78.01;101605.38;4951811;28;20098;-70
2022/05/29 05:59:45;;;;;;;12.85;5.50;;;;;;;10.81;78.35;101605.38;4952881;28;20027;-70
2022/05/29 06:02:11;;;;;;;12.82;5.63;;;;;;;10.82;78.47;101601.03;4952062;28;20479;-70
2022/05/29 06:04:38;;;;;;;13.82;5.38;;;;;;;10.81;78.02;101610.59;4954341;28;20027;-69
2022/05/29 06:07:04;;;;;;;14.48;5.40;;;;;;;10.80;78.54;101600.97;4949686;28;20065;-70
2022/05/29 06:09:29;;;;;;;18.27;5.68;;;;;;;10.80;78.87;101598.38;4952560;28;20078;-70
2022/05/29 06:11:55;;;;;;;15.00;5.72;;;;;;;10.85;78.74;101604.66;4949144;28;20035;-70
2022/05/29 06:14:21;;;;;;;15.15;5.85;;;;;;;10.88;79.03;101603.88;4952067;28;20035;-70
2022/05/29 06:16:46;;;;;;;13.68;5.45;;;;;;;10.90;78.69;101610.88;4950924;28;20470;-70
2022/05/29 06:19:12;;;;;;;11.93;5.20;;;;;;;10.94;79.42;101604.94;4949680;28;20042;-70
2022/05/29 06:21:37;;;;;;;17.42;5.95;;;;;;;10.97;79.97;101604.19;4950913;28;20061;-70
2022/05/29 06:24:03;;;;;;;13.23;6.25;;;;;;;11.01;80.33;101597.31;4953158;28;20462;-70
2022/05/29 06:26:28;;;;;;;15.68;6.57;;;;;;;11.05;80.70;101605.34;4953863;28;20027;-74
2022/05/29 06:28:53;;;;;;;17.08;6.40;;;;;;;11.09;79.73;101601.09;4954210;28;20055;-74
2022/05/29 06:31:19;;;;;;;16.70;6.13;;;;;;;11.13;79.59;101602.97;4953852;28;20058;-75
2022/05/29 06:33:44;;;;;;;19.35;6.47;;;;;;;11.16;79.74;101595.25;4950015;28;20082;-75
2022/05/29 06:36:15;;;;;;;15.65;6.43;;;;;;;11.18;80.07;101600.50;4953741;28;20023;-75
2022/05/29 06:38:42;;;;;;;16.40;6.75;;;;;;;11.22;79.78;101605.00;4953093;28;20038;-75
2022/05/29 06:41:09;;;;;;;19.13;6.90;;;;;;;11.24;79.85;101609.44;4950393;28;20106;-75
2022/05/29 06:43:36;;;;;;;20.33;6.97;;;;;;;11.29;79.55;101604.38;4947773;28;20082;-75
2022/05/29 06:46:02;;;;;;;16.88;7.10;;;;;;;11.29;79.70;101602.63;4954010;28;20028;-75
2022/05/29 06:48:28;;;;;;;23.25;8.40;;;;;;;11.31;79.37;101611.41;4953196;28;20069;-75
2022/05/29 06:50:53;;;;;;;16.73;7.05;;;;;;;11.36;77.97;101606.34;4949567;28;20027;-75
2022/05/29 06:53:20;;;;;;;17.63;7.05;;;;;;;11.38;79.12;101607.25;4952301;28;20045;-75
2022/05/29 06:55:53;;;;;;;23.25;7.60;;;;;;;11.39;79.99;101605.56;4944440;28;20027;-75
2022/05/29 06:58:18;;;;;;;18.65;6.72;;;;;;;11.41;79.06;101610.00;4950403;28;20117;-71
2022/05/29 07:08:55;;;;;;;18.70;8.02;;;;;;;11.54;79.83;101613.00;4952158;28;20490;-72
2022/05/29 07:11:24;;;;;;;19.20;7.88;;;;;;;11.56;79.89;101600.91;4953919;28;20050;-72
2022/05/29 07:13:50;;;;;;;18.67;6.88;;;;;;;11.60;80.09;101598.41;4954114;28;20055;-71
2022/05/29 07:16:16;;;;;;;17.33;7.40;;;;;;;11.61;79.48;101600.16;4952330;28;20087;-71
2022/05/29 07:18:41;;;;;;;15.07;7.00;;;;;;;11.64;78.99;101599.38;4952822;28;20031;-71
2022/05/29 07:21:07;;;;;;;17.48;7.60;;;;;;;11.65;80.18;101604.66;4953692;28;20451;-71
2022/05/29 07:23:36;;;;;;;21.95;7.78;;;;;;;11.69;79.76;101596.91;4951250;28;20039;-72
2022/05/29 07:26:03;;;;;;;22.23;8.00;;;;;;;11.74;80.35;101595.34;4953476;28;20039;-72
2022/05/29 07:28:28;;;;;;;20.48;7.45;;;;;;;11.78;80.68;101592.88;4952178;28;20039;-71
2022/05/29 07:30:57;;;;;;;23.23;8.82;;;;;;;11.83;78.12;101593.91;4952850;28;20035;-71
2022/05/29 07:33:23;;;;;;;18.50;7.28;;;;;;;11.91;75.13;101594.13;4952960;28;20043;-72
2022/05/29 07:35:48;;;;;;;23.13;7.88;;;;;;;11.97;78.79;101593.47;4953265;28;20030;-71
2022/05/29 07:38:13;;;;;;;18.05;7.20;;;;;;;12.01;79.91;101587.50;4952827;28;20055;-71
2022/05/29 07:40:39;;;;;;;21.20;7.60;;;;;;;12.06;78.84;101588.50;4951691;28;20035;-72
2022/05/29 07:43:20;;;;;;;20.75;7.75;;;;;;;12.11;78.34;101586.94;4952632;28;20393;-72
2022/05/29 07:45:57;;;;;;;17.65;6.38;;;;;;;12.19;79.19;101600.19;4947293;28;20067;-72
2022/05/29 07:48:25;;;;;;;17.83;6.80;;;;;;;12.21;78.00;101589.78;4952526;28;20023;-72
2022/05/29 07:50:51;;;;;;;16.90;6.32;;;;;;;12.23;75.87;101588.13;4952156;29;20493;-71
2022/05/29 07:53:17;;;;;;;21.05;6.72;;;;;;;12.25;76.16;101587.34;4952493;28;20082;-72
2022/05/29 07:55:45;;;;;;;20.60;7.13;;;;;;;12.29;78.44;101596.13;4952784;28;20027;-72
2022/05/29 07:58:12;;;;;;;17.08;7.22;;;;;;;12.32;78.42;101584.03;4952840;28;20034;-72
2022/05/29 08:00:39;;;;;;;19.45;6.13;;;;;;;12.36;76.20;101582.41;4951224;28;20046;-72
2022/05/29 08:03:04;;;;;;;16.15;5.88;;;;;;;12.38;77.17;101577.22;4945397;28;20035;-72
2022/05/29 08:05:33;;;;;;;13.40;5.35;;;;;;;12.41;75.71;101575.59;4951124;28;20045;-72
2022/05/29 08:07:59;;;;;;;21.85;6.05;;;;;;;12.45;76.21;101585.25;4951225;28;20045;-75
2022/05/29 08:10:25;;;;;;;12.77;4.50;;;;;;;12.48;72.54;101577.53;4951160;28;20027;-75
2022/05/29 08:12:51;;;;;;;17.15;5.75;;;;;;;12.53;74.67;101577.66;4951277;28;20035;-75
2022/05/29 08:15:17;;;;;;;20.88;5.95;;;;;;;12.62;76.79;101582.25;4951751;28;20023;-75
2022/05/29 08:17:43;;;;;;;14.13;5.80;;;;;;;12.69;76.41;101579.81;4950176;28;20090;-76
2022/05/29 08:20:11;;;;;;;18.55;6.47;;;;;;;12.75;74.80;101575.63;4947810;28;20574;-75
2022/05/29 08:22:37;;;;;;;17.98;5.93;;;;;;;12.81;74.36;101573.16;4949301;28;20063;-75
2022/05/29 08:30:37;;;;;;;19.48;6.63;;;;;;;12.90;73.27;101555.06;4951484;28;20150;-76
2022/05/29 08:33:08;;;;;;;13.60;5.93;;;;;;;12.98;72.27;101556.16;4951574;28;20058;-76
2022/05/29 08:35:35;;;;;;;19.25;6.35;;;;;;;13.02;71.25;101563.25;4951975;28;20031;-75
2022/05/29 08:38:03;;;;;;;16.63;6.57;;;;;;;13.05;71.12;101559.81;4951358;29;20070;-76
2022/05/29 08:40:30;;;;;;;17.83;6.13;;;;;;;13.02;70.51;101558.00;4951837;28;20114;-76
2022/05/29 08:42:56;;;;;;;15.88;5.50;;;;;;;13.00;70.19;101554.44;4952770;28;20110;-76
2022/05/29 08:45:22;;;;;;;14.65;5.47;;;;;;;12.98;71.44;101556.16;4950188;28;20114;-75
2022/05/29 08:47:49;;;;;;;13.18;5.25;;;;;;;12.96;68.01;101557.88;4951491;28;20558;-76
2022/05/29 08:50:22;;;;;;;16.05;5.57;;;;;;;12.96;70.83;101562.19;4951336;28;20045;-76
2022/05/29 08:53:05;;;;;;;17.90;5.60;;;;;;;12.98;72.34;101555.28;4952519;29;20507;-75
2022/05/29 08:55:45;;;;;;;19.33;5.68;;;;;;;13.03;72.47;101556.25;4950761;28;20019;-76
2022/05/29 08:58:24;;;;;;;16.95;5.88;;;;;;;13.09;72.24;101555.53;4951033;29;20506;-75
2022/05/29 09:01:21;;;;;;;15.65;6.38;;;;;;;13.16;71.47;101554.84;4947763;29;20117;-76
2022/05/29 09:03:57;;;;;;;15.57;5.03;;;;;;;13.17;68.40;101547.03;4951661;29;20030;-76
2022/05/29 09:06:34;;;;;;;16.42;5.65;;;;;;;13.24;70.23;101545.44;4952227;28;20023;-76
2022/05/29 09:09:11;;;;;;;18.30;6.43;;;;;;;13.31;70.13;101543.84;4951385;28;20035;-76
2022/05/29 09:11:54;;;;;;;15.95;5.78;;;;;;;13.40;70.94;101544.13;4951462;28;20038;-77
2022/05/29 09:14:31;;;;;;;19.00;5.72;;;;;;;13.50;69.25;101539.97;4951251;28;20121;-77
2022/05/29 09:17:03;;;;;;;20.30;6.38;;;;;;;13.60;70.36;101541.06;4952438;28;20038;-75
2022/05/29 09:19:45;;;;;;;20.23;6.60;;;;;;;13.62;70.03;101536.75;4955343;29;20081;-77
2022/05/29 09:22:18;;;;;;;18.70;7.10;;;;;;;13.59;68.36;101532.31;4954995;28;20056;-76
2022/05/29 09:25:08;;;;;;;18.30;6.90;;;;;;;13.59;68.36;101528.84;4953557;28;20058;-76
2022/05/29 09:27:35;;;;;;;17.40;6.78;;;;;;;13.54;67.27;101534.84;4955056;28;20172;-76
2022/05/29 09:30:01;;;;;;;18.33;6.30;;;;;;;13.52;68.90;101530.41;4955327;28;20062;-75
2022/05/29 09:32:29;;;;;;;16.20;5.97;;;;;;;13.46;69.39;101527.66;4953898;28;20114;-74
2022/05/29 09:35:00;;;;;;;17.83;6.10;;;;;;;13.44;70.65;101532.88;4954180;28;20130;-75
2022/05/29 09:37:42;;;;;;;19.77;7.25;;;;;;;13.39;71.22;101527.50;4954427;28;20474;-75
2022/05/29 09:40:21;;;;;;;76.72;52.08;;;;;;;13.35;71.30;101524.78;4953809;28;20504;-74
2022/05/29 09:42:48;;;;;;;;;;;;;;;13.40;70.28;101517.94;4952562;28;20027;-75
2022/05/29 09:45:24;;;;;;;21.17;13.63;;;;;;;13.38;69.23;101519.63;4954132;28;19962;-75
2022/05/29 09:50:43;;;;;;;14.35;6.95;;;;;;;13.56;72.01;101513.94;4953740;28;20030;-74
2022/05/29 09:53:15;;;;;;;14.80;6.65;;;;;;;13.64;69.90;101512.34;4952270;28;20525;-75
2022/05/29 09:55:49;;;;;;;13.35;6.82;;;;;;;13.72;69.13;101500.31;4950579;28;20049;-75
2022/05/29 09:58:23;;;;;;;13.77;5.75;;;;;;;13.84;68.58;101496.19;4953670;28;20054;-74
2022/05/29 10:00:59;;;;;;;15.07;6.20;;;;;;;13.85;64.26;101482.25;4954220;28;20118;-74
2022/05/29 10:03:43;;;;;;;17.58;6.85;;;;;;;13.89;64.84;101491.94;4953643;28;20037;-75
2022/05/29 10:06:14;;;;;;;15.45;7.45;;;;;;;13.90;65.72;101493.69;4954037;28;20041;-74
2022/05/29 10:08:40;;;;;;;17.20;7.10;;;;;;;13.90;67.60;101494.59;4946955;28;20473;-75
2022/05/29 10:11:12;;;;;;;25.13;8.20;;;;;;;13.91;68.28;101490.22;4953732;28;20035;-75
2022/05/29 10:13:39;;;;;;;16.17;6.65;;;;;;;13.87;66.18;101486.63;4953088;28;20031;-75
2022/05/29 10:16:07;;;;;;;18.77;7.75;;;;;;;13.84;67.55;101502.28;4953757;28;20035;-75
2022/05/29 10:18:36;;;;;;;16.58;6.90;;;;;;;13.82;67.94;101490.91;4944037;28;20106;-75
2022/05/29 10:21:27;;;;;;;19.13;7.03;;;;;;;13.84;69.39;101497.06;4953590;28;20031;-75
2022/05/29 10:24:22;;;;;;;19.67;6.55;;;;;;;13.80;68.37;101496.97;4946148;28;20570;-75
2022/05/29 10:26:55;;;;;;;10.55;5.35;;;;;;;13.73;69.10;101503.81;4951687;28;20024;-75
2022/05/29 10:29:27;;;;;;;15.70;5.30;;;;;;;13.67;70.37;101501.97;4953582;28;20503;-75
2022/05/29 10:31:53;;;;;;;11.60;4.72;;;;;;;13.64;68.92;101506.22;4952931;28;20034;-75
2022/05/29 10:34:32;;;;;;;13.75;5.07;;;;;;;13.61;71.34;101506.16;4951967;28;20063;-76
2022/05/29 10:36:58;;;;;;;13.23;4.50;;;;;;;13.55;68.79;101502.56;4947242;28;20038;-74
2022/05/29 10:39:29;;;;;;;19.02;5.93;;;;;;;13.44;73.00;101506.69;4948518;28;20024;-74
2022/05/29 10:41:55;;;;;;;18.35;5.28;;;;;;;13.40;73.15;101502.22;4958241;28;20066;-74
2022/05/29 10:44:44;;;;;;;13.25;5.10;;;;;;;13.38;74.68;101510.06;4950968;28;20042;-74
2022/05/29 10:47:16;;;;;;;17.40;5.20;;;;;;;13.37;72.78;101507.41;4952752;28;20376;-74
2022/05/29 10:50:14;;;;;;;8.63;4.25;;;;;;;13.38;72.63;101515.28;4950078;28;20118;-74
2022/05/29 10:53:10;;;;;;;10.43;4.45;;;;;;;13.39;72.27;101511.78;4950525;28;20123;-74
2022/05/29 10:56:02;;;;;;;10.60;4.45;;;;;;;13.35;74.31;101510.00;4949206;28;20031;-74
2022/05/29 10:58:59;;;;;;;10.68;3.90;;;;;;;13.37;74.09;101504.78;4949156;28;20079;-74
2022/05/29 11:04:39;;;;;;;9.63;3.90;;;;;;;13.38;74.82;101507.44;4950494;28;20168;-74
2022/05/29 11:07:46;;;;;;;9.95;3.60;;;;;;;13.39;75.41;101503.94;4945774;28;20061;-74
2022/05/29 11:10:21;;;;;;;7.13;3.08;;;;;;;13.44;72.49;101501.47;4949356;28;20026;-75
2022/05/29 11:12:56;;;;;;;13.13;4.35;;;;;;;13.47;73.55;101504.13;4951176;28;20030;-75
2022/05/29 11:15:50;;;;;;;9.75;4.32;;;;;;;13.52;73.08;101502.47;4949133;28;20027;-75
2022/05/29 11:18:30;;;;;;;11.23;4.47;;;;;;;13.54;73.97;101505.13;4948341;28;20173;-75
2022/05/29 11:21:24;;;;;;;11.13;3.95;;;;;;;13.55;72.29;101506.91;4947260;29;20027;-75
2022/05/29 11:24:04;;;;;;;10.18;3.55;;;;;;;13.56;75.22;101508.69;4949768;29;20047;-75
2022/05/29 11:26:56;;;;;;;8.60;2.83;;;;;;;13.58;72.86;101506.97;4950631;29;20019;-75
2022/05/29 11:29:49;;;;;;;6.63;2.78;;;;;;;13.55;74.02;101505.16;4947054;29;20036;-75
2022/05/29 11:32:32;;;;;;;6.75;2.25;;;;;;;13.54;69.46;101505.13;4951291;28;20654;-75
2022/05/29 11:35:12;;;;;;;7.78;2.30;;;;;;;13.47;72.46;101495.38;4951277;29;20035;-75
2022/05/29 11:38:03;;;;;;;8.80;2.70;;;;;;;13.38;73.54;101509.16;4960933;28;20031;-71
2022/05/29 11:40:41;;;;;;;8.30;2.60;;;;;;;13.38;74.18;101509.16;4948088;29;20042;-72
2022/05/29 11:43:15;;;;;;;11.63;3.30;;;;;;;13.39;75.96;101509.19;4951376;28;20019;-71
2022/05/29 11:51:43;;;;;;;9.75;2.65;;;;;;;13.31;75.33;101502.88;4945572;28;20051;-71
2022/05/29 11:54:17;;;;;;;9.90;2.90;;;;;;;13.29;75.75;101494.09;4941526;28;20381;-71
2022/05/29 11:56:59;;;;;;;7.90;2.83;;;;;;;13.33;74.44;101511.63;4943593;29;20114;-71
2022/05/29 11:59:48;;;;;;;6.90;2.85;;;;;;;13.36;74.97;101505.63;4942128;29;20031;-71
2022/05/29 12:02:15;;;;;;;;;;;;;;;13.42;73.27;101494.41;4939794;29;20072;-72
2022/05/29 12:04:50;;;;;;;5.68;1.73;;;;;;;13.36;72.16;101485.56;4939254;29;19929;-72
2022/05/29 12:07:24;;;;;;;5.15;1.83;;;;;;;13.30;73.66;101488.00;4950214;28;20031;-71
2022/05/29 12:09:55;;;;;;;7.25;2.20;;;;;;;13.29;74.05;101482.75;4945094;29;20491;-71
2022/05/29 12:12:27;;;;;;;4.90;1.58;;;;;;;13.25;73.87;101481.78;4952127;28;20035;-71
2022/05/29 12:14:59;;;;;;;5.53;2.03;;;;;;;13.25;74.78;101480.91;4951788;28;20038;-71